Time;durP1;ratioP1;P1;durP2;ratioP2;P2;SDS_P1;SDS_P2;PMS_P1;PMS_P2;Temp;Humidity;BMP_temperature;BMP_pressure;BME280_temperature;BME280_humidity;BME280_pressure;Samples;Min_cycle;Max_cycle;Signal;HPM_P1;HPM_P2
2023/10/17 00:02:26;;;;;;;6.50;2.40;;;18.40;99.90;;;;;;7400478;19;19919;-72
2023/10/17 00:04:52;;;;;;;9.90;2.80;;;18.30;99.90;;;;;;7404837;19;20350;-72
2023/10/17 00:07:20;;;;;;;5.30;2.40;;;18.40;99.90;;;;;;7402020;19;19921;-72
2023/10/17 00:09:48;;;;;;;6.88;2.60;;;18.30;99.90;;;;;;7402487;19;19931;-73
2023/10/17 00:15:13;;;;;;;9.07;2.85;;;18.30;99.90;;;;;;7400613;19;20334;-72
2023/10/17 00:17:26;;;;;;;10.75;3.83;;;18.30;99.90;;;;;;7399934;19;20390;-73
2023/10/17 00:19:52;;;;;;;10.25;3.90;;;18.30;99.90;;;;;;7403132;19;19927;-72
2023/10/17 00:22:18;;;;;;;9.73;3.97;;;18.30;99.90;;;;;;7399128;19;20385;-72
2023/10/17 00:24:48;;;;;;;9.68;4.30;;;18.30;99.90;;;;;;7401508;19;19926;-73
2023/10/17 00:27:14;;;;;;;8.00;3.97;;;18.20;99.90;;;;;;7403360;19;19952;-72
2023/10/17 00:29:40;;;;;;;10.05;3.88;;;18.20;99.90;;;;;;7400951;19;20010;-72
2023/10/17 00:32:09;;;;;;;10.57;4.68;;;18.20;99.90;;;;;;7401388;19;19941;-72
2023/10/17 00:34:35;;;;;;;11.48;4.53;;;18.20;99.90;;;;;;7401387;19;19910;-72
2023/10/17 00:37:11;;;;;;;10.60;5.13;;;18.20;99.90;;;;;;7402939;19;19926;-72
2023/10/17 00:39:38;;;;;;;11.00;4.70;;;18.20;99.90;;;;;;7402973;19;20575;-73
2023/10/17 00:44:39;;;;;;;14.10;6.57;;;18.30;99.90;;;;;;7404192;19;20429;-72
2023/10/17 00:47:08;;;;;;;14.45;6.80;;;18.30;99.90;;;;;;7398289;19;20010;-72
2023/10/17 00:49:42;;;;;;;13.50;7.03;;;18.20;99.90;;;;;;7403127;19;19923;-73
2023/10/17 00:52:25;;;;;;;14.27;7.38;;;18.30;99.90;;;;;;7398336;19;20338;-73
2023/10/17 00:54:53;;;;;;;15.30;8.63;;;18.20;99.90;;;;;;7401983;19;19919;-72
2023/10/17 00:57:26;;;;;;;14.27;8.07;;;18.30;99.90;;;;;;7403626;19;19926;-72
2023/10/17 00:59:55;;;;;;;16.75;7.88;;;18.20;99.90;;;;;;7403607;19;19923;-72
2023/10/17 01:02:29;;;;;;;16.85;8.77;;;18.30;99.90;;;;;;7401753;19;19917;-73
2023/10/17 01:05:04;;;;;;;15.30;7.72;;;18.30;99.90;;;;;;7404926;19;19954;-74
2023/10/17 01:07:29;;;;;;;14.63;8.77;;;18.20;99.90;;;;;;7402224;19;19922;-73
2023/10/17 01:09:56;;;;;;;14.65;8.88;;;18.20;99.90;;;;;;7403410;19;19994;-73
2023/10/17 01:12:27;;;;;;;14.82;7.90;;;18.20;99.90;;;;;;7397667;19;20548;-72
2023/10/17 01:14:54;;;;;;;13.00;7.90;;;18.30;99.90;;;;;;7401793;19;19946;-73
2023/10/17 01:17:24;;;;;;;16.38;8.30;;;18.30;99.90;;;;;;7401483;19;19911;-73
2023/10/17 01:19:58;;;;;;;14.60;7.88;;;18.30;99.90;;;;;;7401157;19;19982;-72
2023/10/17 01:22:24;;;;;;;15.48;7.10;;;18.30;99.90;;;;;;7402476;19;19935;-73
2023/10/17 01:24:50;;;;;;;14.00;7.07;;;18.30;99.90;;;;;;7404337;19;19930;-72
2023/10/17 01:27:16;;;;;;;13.07;7.10;;;18.30;99.90;;;;;;7403333;19;19922;-73
2023/10/17 01:29:43;;;;;;;12.50;7.68;;;18.30;99.90;;;;;;7405348;19;19915;-72
2023/10/17 01:32:14;;;;;;;13.10;6.90;;;18.30;99.90;;;;;;7399640;19;19919;-73
2023/10/17 01:34:40;;;;;;;15.68;7.45;;;18.30;99.90;;;;;;7402466;19;19948;-73
2023/10/17 01:37:10;;;;;;;16.77;7.40;;;18.30;99.90;;;;;;7399769;19;19918;-73
2023/10/17 01:39:37;;;;;;;12.93;6.55;;;18.30;99.90;;;;;;7404168;19;19938;-73
2023/10/17 01:42:05;;;;;;;16.48;6.72;;;18.30;99.90;;;;;;7399439;19;19920;-73
2023/10/17 01:44:31;;;;;;;16.40;7.03;;;18.30;99.90;;;;;;7403229;19;19914;-72
2023/10/17 01:46:56;;;;;;;16.60;7.45;;;18.30;99.90;;;;;;7404593;19;20448;-73
2023/10/17 01:49:22;;;;;;;17.15;8.35;;;18.30;99.90;;;;;;7401599;19;20894;-72
2023/10/17 01:51:49;;;;;;;18.42;8.90;;;18.30;99.90;;;;;;7403358;19;20912;-72
2023/10/17 01:54:17;;;;;;;17.27;8.88;;;18.30;99.90;;;;;;7402589;19;20334;-73
2023/10/17 01:56:49;;;;;;;17.55;9.52;;;18.30;99.90;;;;;;7403020;19;20365;-72
2023/10/17 01:59:28;;;;;;;15.02;8.40;;;18.30;99.90;;;;;;7397537;19;19918;-74
2023/10/17 02:01:59;;;;;;;15.23;8.68;;;18.30;99.90;;;;;;7402101;19;19923;-73
2023/10/17 02:04:25;;;;;;;16.20;8.85;;;18.40;99.90;;;;;;7402168;19;19954;-73
2023/10/17 02:06:51;;;;;;;15.57;8.43;;;18.40;99.90;;;;;;7401912;19;19923;-73
2023/10/17 02:11:56;;;;;;;13.90;8.05;;;18.50;99.90;;;;;;7402571;19;20594;-74
2023/10/17 02:14:22;;;;;;;18.80;8.25;;;18.50;99.90;;;;;;7398978;19;19945;-73
2023/10/17 02:16:49;;;;;;;15.20;7.32;;;18.40;99.90;;;;;;7401870;19;19918;-72
2023/10/17 02:19:16;;;;;;;15.98;8.43;;;18.40;99.90;;;;;;7401168;19;19950;-74
2023/10/17 02:21:43;;;;;;;;;;;18.40;99.90;;;;;;7404304;19;20604;-73
2023/10/17 02:24:10;;;;;;;16.45;8.57;;;18.40;99.90;;;;;;7400632;19;19915;-72
2023/10/17 02:26:43;;;;;;;14.85;8.88;;;18.30;99.90;;;;;;7401436;19;19986;-72
2023/10/17 02:29:12;;;;;;;14.30;9.27;;;18.30;99.90;;;;;;7399056;19;20773;-72
2023/10/17 02:31:40;;;;;;;18.85;9.50;;;18.30;99.90;;;;;;7400357;19;19915;-73
2023/10/17 02:34:09;;;;;;;16.13;8.10;;;18.30;99.90;;;;;;7396421;19;19922;-72
2023/10/17 02:36:35;;;;;;;15.43;8.40;;;18.20;99.90;;;;;;7396925;19;19933;-72
2023/10/17 02:39:03;;;;;;;17.90;8.82;;;18.20;99.90;;;;;;7398951;19;20382;-72
2023/10/17 02:41:31;;;;;;;13.38;8.00;;;18.20;99.90;;;;;;7397437;19;19922;-73
2023/10/17 02:43:57;;;;;;;14.15;8.35;;;18.20;99.90;;;;;;7398150;19;20387;-72
2023/10/17 02:46:27;;;;;;;15.73;9.25;;;18.20;99.90;;;;;;7396873;19;19962;-72
2023/10/17 02:48:57;;;;;;;17.55;8.77;;;18.20;99.90;;;;;;7394627;19;19966;-74
2023/10/17 02:53:55;;;;;;;16.10;8.80;;;18.10;99.90;;;;;;7395930;19;19925;-73
2023/10/17 02:56:22;;;;;;;17.85;8.45;;;18.10;99.90;;;;;;7394770;19;20366;-72
2023/10/17 02:59:03;;;;;;;13.20;7.90;;;18.10;99.90;;;;;;7399320;19;19926;-72
2023/10/17 03:01:31;;;;;;;14.80;8.27;;;18.10;99.90;;;;;;7395335;19;19925;-73
2023/10/17 03:04:05;;;;;;;17.33;8.73;;;18.10;99.90;;;;;;7399669;19;19923;-72
2023/10/17 03:06:34;;;;;;;15.38;8.52;;;18.10;99.90;;;;;;7375860;19;19919;-73
2023/10/17 03:09:15;;;;;;;12.73;7.15;;;18.10;99.90;;;;;;7397492;19;19984;-71
2023/10/17 03:11:50;;;;;;;12.10;6.72;;;18.10;99.90;;;;;;7395311;19;19925;-72
2023/10/17 03:14:22;;;;;;;12.57;6.45;;;18.10;99.90;;;;;;7375154;19;19979;-73
2023/10/17 03:16:54;;;;;;;11.23;6.65;;;18.10;99.90;;;;;;7397485;19;19940;-73
2023/10/17 03:19:25;;;;;;;12.73;7.60;;;18.00;99.90;;;;;;7398725;19;19922;-71
2023/10/17 03:21:53;;;;;;;11.73;6.75;;;18.00;99.90;;;;;;7396844;19;19914;-72
2023/10/17 03:24:24;;;;;;;10.93;6.38;;;18.10;99.90;;;;;;7396645;19;19926;-73
2023/10/17 03:27:03;;;;;;;12.23;5.93;;;18.10;99.90;;;;;;7394294;19;20484;-73
2023/10/17 03:29:34;;;;;;;13.18;6.43;;;18.10;99.90;;;;;;7399330;19;19970;-73
2023/10/17 03:32:04;;;;;;;12.35;6.30;;;18.20;99.90;;;;;;7397821;19;20015;-73
2023/10/17 03:34:35;;;;;;;12.60;6.88;;;18.10;99.90;;;;;;7399667;19;19926;-74
2023/10/17 03:39:52;;;;;;;10.75;6.20;;;18.10;99.90;;;;;;7406449;19;19926;-73
2023/10/17 03:45:13;;;;;;;12.70;6.53;;;18.10;99.90;;;;;;7399189;19;19918;-73
2023/10/17 03:47:40;;;;;;;13.27;6.35;;;18.10;99.90;;;;;;7407741;19;19914;-74
2023/10/17 03:50:08;;;;;;;13.27;6.38;;;18.10;99.90;;;;;;7402481;19;19925;-73
2023/10/17 03:52:35;;;;;;;10.98;6.72;;;18.00;99.90;;;;;;7404027;19;19915;-72
2023/10/17 03:55:02;;;;;;;12.27;6.97;;;18.00;99.90;;;;;;7402019;19;20041;-73
2023/10/17 03:57:28;;;;;;;10.70;6.63;;;18.00;99.90;;;;;;7405821;19;19918;-72
2023/10/17 03:59:58;;;;;;;14.38;6.72;;;18.00;99.90;;;;;;7381449;19;20431;-73
2023/10/17 04:02:24;;;;;;;13.13;6.65;;;18.00;99.90;;;;;;7400076;19;19957;-73
2023/10/17 04:04:54;;;;;;;;;;;18.00;99.90;;;;;;7406893;19;20011;-72
2023/10/17 04:07:26;;;;;;;12.18;7.03;;;18.00;99.90;;;;;;7405420;19;19974;-73
2023/10/17 04:09:52;;;;;;;14.60;6.80;;;18.00;99.90;;;;;;7407649;19;19918;-73
2023/10/17 04:12:31;;;;;;;10.85;6.35;;;18.00;99.90;;;;;;7404072;19;19910;-73
2023/10/17 04:15:04;;;;;;;12.82;7.07;;;18.00;99.90;;;;;;7404609;19;19910;-73
2023/10/17 04:17:36;;;;;;;11.38;7.30;;;18.00;99.90;;;;;;7402948;19;19911;-72
2023/10/17 04:20:11;;;;;;;10.93;6.75;;;18.00;99.90;;;;;;7404035;19;19923;-73
2023/10/17 04:22:38;;;;;;;14.65;7.00;;;18.00;99.90;;;;;;7400876;19;19914;-73
2023/10/17 04:25:20;;;;;;;11.32;6.28;;;18.00;99.90;;;;;;7403483;19;19918;-73
2023/10/17 04:28:16;;;;;;;13.23;6.18;;;17.90;99.90;;;;;;7403583;19;19937;-73
2023/10/17 04:30:46;;;;;;;15.20;6.53;;;17.90;99.90;;;;;;7404531;19;19922;-72
2023/10/17 04:33:19;;;;;;;13.10;7.03;;;17.90;99.90;;;;;;7403888;19;19948;-73
2023/10/17 04:35:53;;;;;;;11.52;6.90;;;18.00;99.90;;;;;;7403532;19;19929;-72
2023/10/17 04:38:19;;;;;;;13.13;6.55;;;17.90;99.90;;;;;;7401118;19;19926;-72
2023/10/17 04:41:11;;;;;;;10.82;6.88;;;17.90;99.90;;;;;;7402543;19;20311;-72
2023/10/17 04:43:54;;;;;;;12.88;7.38;;;17.90;99.90;;;;;;7401959;19;19936;-72
2023/10/17 04:46:29;;;;;;;12.23;6.85;;;17.90;99.90;;;;;;7398749;19;19928;-72
2023/10/17 04:49:06;;;;;;;12.90;6.93;;;17.90;99.90;;;;;;7402468;19;20248;-73
2023/10/17 04:51:38;;;;;;;9.98;6.50;;;17.90;99.90;;;;;;7400507;19;20949;-72
2023/10/17 04:56:55;;;;;;;11.95;6.72;;;18.00;99.90;;;;;;7404287;19;19921;-72
2023/10/17 05:00:10;;;;;;;12.55;6.25;;;18.00;99.90;;;;;;7399783;19;19911;-72
2023/10/17 06:18:52;;;;;;;15.60;8.43;;;18.20;99.90;;;;;;7400754;19;20017;-72
2023/10/17 06:21:19;;;;;;;14.85;8.63;;;18.20;99.90;;;;;;7398419;19;19929;-71
2023/10/17 06:32:03;;;;;;;13.18;7.90;;;18.50;99.90;;;;;;7379251;19;19978;-73
2023/10/17 06:34:31;;;;;;;18.65;10.18;;;18.60;99.90;;;;;;7399729;19;19982;-74
2023/10/17 06:37:01;;;;;;;15.77;9.50;;;18.70;99.90;;;;;;7403219;19;19926;-72
2023/10/17 06:39:36;;;;;;;16.65;9.32;;;18.70;99.90;;;;;;7397328;19;19919;-73
2023/10/17 06:42:14;;;;;;;13.23;8.52;;;18.80;99.90;;;;;;7398935;19;20317;-73
2023/10/17 06:45:01;;;;;;;14.77;9.13;;;18.80;99.90;;;;;;7399355;19;20330;-73
2023/10/17 06:48:07;;;;;;;16.45;8.60;;;18.80;99.90;;;;;;7400178;19;19986;-74
2023/10/17 06:51:28;;;;;;;15.63;8.73;;;18.80;99.90;;;;;;7399465;19;20350;-74
2023/10/17 06:53:11;;;;;;;13.35;8.35;;;18.80;99.90;;;;;;7398781;19;19929;-73
2023/10/17 06:55:43;;;;;;;15.77;8.68;;;18.90;99.90;;;;;;7401053;19;20484;-74
2023/10/17 06:58:10;;;;;;;17.33;8.90;;;18.90;99.90;;;;;;7397679;19;19948;-72
2023/10/17 07:00:51;;;;;;;14.20;8.00;;;19.00;99.90;;;;;;7401278;19;19994;-72
2023/10/17 07:03:24;;;;;;;15.40;8.85;;;19.00;99.90;;;;;;7398132;19;19922;-73
2023/10/17 07:05:51;;;;;;;14.02;8.27;;;19.10;99.90;;;;;;7400150;19;19919;-75
2023/10/17 07:08:20;;;;;;;16.58;8.82;;;19.10;99.90;;;;;;7399158;19;20237;-73
2023/10/17 07:13:54;;;;;;;16.58;9.07;;;19.40;99.90;;;;;;7407109;19;20382;-74
2023/10/17 07:16:32;;;;;;;16.10;9.75;;;19.40;99.90;;;;;;7404592;19;19937;-75
2023/10/17 07:19:09;;;;;;;19.40;8.82;;;19.50;99.90;;;;;;7405678;19;19950;-72
2023/10/17 07:21:56;;;;;;;13.38;7.85;;;19.50;99.90;;;;;;7405105;19;20366;-73
2023/10/17 07:24:23;;;;;;;12.13;6.97;;;19.60;99.90;;;;;;7392751;19;24374;-75
2023/10/17 07:26:52;;;;;;;;;;;19.60;99.90;;;;;;7405739;19;19926;-75
2023/10/17 07:29:22;;;;;;;11.82;6.43;;;19.60;99.90;;;;;;7400957;19;20152;-73
2023/10/17 07:31:53;;;;;;;11.50;5.95;;;19.70;99.90;;;;;;7405183;19;19917;-73
2023/10/17 07:34:23;;;;;;;10.55;6.13;;;19.70;99.90;;;;;;7405708;19;20327;-73
2023/10/17 07:37:05;;;;;;;13.57;5.80;;;19.60;99.90;;;;;;7404423;19;19919;-73
2023/10/17 07:39:36;;;;;;;11.68;5.97;;;19.70;99.90;;;;;;7405780;19;20212;-74
2023/10/17 07:42:23;;;;;;;10.57;5.65;;;19.70;99.90;;;;;;7405213;19;19923;-72
2023/10/17 07:44:49;;;;;;;9.32;5.63;;;19.70;99.90;;;;;;7402661;19;19990;-72
2023/10/17 07:47:22;;;;;;;10.15;5.05;;;19.80;99.90;;;;;;7394585;19;19935;-75
2023/10/17 07:49:47;;;;;;;8.50;5.25;;;19.80;99.90;;;;;;7391720;19;19940;-73
2023/10/17 07:52:16;;;;;;;9.55;5.32;;;20.00;99.90;;;;;;7387769;19;19922;-72
2023/10/17 07:54:55;;;;;;;10.55;5.57;;;20.20;99.90;;;;;;7403007;19;20342;-73
2023/10/17 07:57:23;;;;;;;9.07;5.43;;;20.30;99.90;;;;;;7402545;19;19922;-74
2023/10/17 07:59:52;;;;;;;8.63;5.15;;;20.50;99.90;;;;;;7405156;19;20288;-73
2023/10/17 08:02:23;;;;;;;8.85;4.75;;;20.50;99.90;;;;;;7399265;19;19914;-72
2023/10/17 08:04:49;;;;;;;8.98;4.97;;;20.60;99.90;;;;;;7403189;19;19938;-73
2023/10/17 08:07:15;;;;;;;;;;;20.70;99.90;;;;;;7405530;19;20777;-73
2023/10/17 08:09:50;;;;;;;11.05;6.00;;;20.80;99.90;;;;;;7384703;19;20036;-72
2023/10/17 08:12:22;;;;;;;7.93;4.40;;;21.10;99.90;;;;;;7389379;19;19925;-74
2023/10/17 08:14:58;;;;;;;6.88;4.45;;;21.80;99.90;;;;;;7386457;19;20269;-76
2023/10/17 08:17:28;;;;;;;10.30;5.57;;;21.80;99.90;;;;;;7393244;19;19950;-74
2023/10/17 08:20:02;;;;;;;10.90;5.88;;;22.00;99.90;;;;;;7390534;19;19915;-72
2023/10/17 08:22:53;;;;;;;8.70;4.82;;;22.40;99.90;;;;;;7397152;19;19917;-74
2023/10/17 08:25:14;;;;;;;7.18;5.00;;;22.20;99.90;;;;;;7390620;19;19919;-74
2023/10/17 08:30:23;;;;;;;8.75;5.35;;;22.00;99.90;;;;;;7397485;19;19922;-73
2023/10/17 08:32:57;;;;;;;9.20;5.72;;;21.80;99.90;;;;;;7400896;19;19918;-73
2023/10/17 08:35:38;;;;;;;9.25;5.25;;;21.80;99.90;;;;;;7398421;19;19938;-73
2023/10/17 08:38:11;;;;;;;10.80;5.60;;;22.00;99.90;;;;;;7389051;19;19934;-73
2023/10/17 08:43:11;;;;;;;15.80;6.68;;;22.20;99.90;;;;;;7397659;19;19938;-73
2023/10/17 08:45:41;;;;;;;11.55;6.25;;;22.20;99.90;;;;;;7400528;19;20395;-73
2023/10/17 08:48:11;;;;;;;13.10;6.30;;;22.40;99.90;;;;;;7399657;19;19923;-73
2023/10/17 08:50:43;;;;;;;9.63;5.47;;;22.30;99.90;;;;;;7401633;19;19922;-73
2023/10/17 08:53:23;;;;;;;7.63;4.93;;;22.70;99.90;;;;;;7402393;19;20263;-74
2023/10/17 08:55:51;;;;;;;9.38;4.40;;;22.70;99.90;;;;;;7397959;19;19907;-73
2023/10/17 08:58:24;;;;;;;7.45;3.63;;;22.70;99.90;;;;;;7388708;19;20342;-72
2023/10/17 09:00:55;;;;;;;;;;;22.50;99.90;;;;;;7392093;19;20282;-73
2023/10/17 09:03:31;;;;;;;8.30;3.70;;;22.40;99.90;;;;;;7387343;19;19922;-72
2023/10/17 09:06:03;;;;;;;8.52;3.60;;;22.30;99.90;;;;;;7394018;19;19911;-72
2023/10/17 09:11:29;;;;;;;8.57;3.97;;;22.50;99.90;;;;;;7382757;19;19922;-73
2023/10/17 09:17:21;;;;;;;8.48;3.65;;;22.50;99.90;;;;;;7376818;19;19918;-71
2023/10/17 09:19:50;;;;;;;11.07;4.18;;;22.20;99.90;;;;;;7387798;19;19925;-72
2023/10/17 09:22:40;;;;;;;10.48;3.30;;;22.30;99.90;;;;;;7395469;19;19951;-72
2023/10/17 09:25:22;;;;;;;5.65;3.00;;;22.30;99.90;;;;;;7393724;19;20351;-72
2023/10/17 09:27:53;;;;;;;6.88;3.50;;;22.20;99.90;;;;;;7396047;19;19918;-72
2023/10/17 09:30:19;;;;;;;7.00;3.67;;;22.30;99.90;;;;;;7395944;19;19907;-73
2023/10/17 09:32:46;;;;;;;11.50;3.67;;;22.50;99.90;;;;;;7400578;19;19927;-74
2023/10/17 09:35:16;;;;;;;7.43;3.40;;;22.30;99.90;;;;;;7399639;19;19919;-73
2023/10/17 09:37:52;;;;;;;9.02;4.13;;;22.30;99.90;;;;;;7399053;19;19926;-73
2023/10/17 09:40:33;;;;;;;8.05;3.47;;;22.40;99.90;;;;;;7393168;19;20349;-73
2023/10/17 09:43:00;;;;;;;9.10;3.70;;;22.50;99.90;;;;;;7403662;19;20576;-74
2023/10/17 09:45:33;;;;;;;9.23;2.97;;;22.50;99.90;;;;;;7393781;19;19918;-73
2023/10/17 09:48:04;;;;;;;8.13;3.72;;;22.30;99.90;;;;;;7395243;19;19918;-74
2023/10/17 09:50:33;;;;;;;9.30;4.03;;;22.40;99.90;;;;;;7392695;19;19935;-75
2023/10/17 09:53:05;;;;;;;10.50;3.67;;;22.50;99.90;;;;;;7393553;19;20275;-74
2023/10/17 09:55:31;;;;;;;;;;;23.10;99.90;;;;;;7398561;19;19921;-72
2023/10/17 09:58:03;;;;;;;7.85;4.00;;;23.30;99.90;;;;;;7397493;19;20009;-73
2023/10/17 10:00:48;;;;;;;9.43;3.80;;;23.80;99.90;;;;;;7396756;19;19915;-73
2023/10/17 10:03:15;;;;;;;7.32;4.00;;;23.80;97.40;;;;;;7386959;19;19919;-73
2023/10/17 10:05:42;;;;;;;9.27;4.03;;;24.00;98.00;;;;;;7389598;19;19922;-73
2023/10/17 10:08:28;;;;;;;8.52;3.97;;;24.00;97.30;;;;;;7390630;19;19931;-73
2023/10/17 10:10:55;;;;;;;10.40;4.38;;;24.10;97.40;;;;;;7399181;19;19922;-74
2023/10/17 10:13:21;;;;;;;13.98;4.50;;;24.20;97.50;;;;;;7388625;19;19938;-74
2023/10/17 10:15:54;;;;;;;10.52;3.72;;;24.40;96.20;;;;;;7393138;19;19922;-73
2023/10/17 10:18:35;;;;;;;7.63;3.95;;;24.00;96.60;;;;;;7390822;19;20003;-73
2023/10/17 10:21:07;;;;;;;9.32;3.38;;;24.10;98.10;;;;;;7392607;19;19923;-73
2023/10/17 10:23:41;;;;;;;9.68;3.58;;;24.20;96.90;;;;;;7393982;19;19926;-73
2023/10/17 10:26:19;;;;;;;7.65;3.85;;;23.90;96.90;;;;;;7392742;19;20524;-73
2023/10/17 10:28:47;;;;;;;7.97;3.97;;;24.00;97.60;;;;;;7399125;19;19915;-73
2023/10/17 10:31:21;;;;;;;8.80;4.47;;;24.00;96.20;;;;;;7391907;19;19918;-73
2023/10/17 10:33:51;;;;;;;8.25;4.05;;;24.30;95.80;;;;;;7388179;19;19960;-73
2023/10/17 10:36:18;;;;;;;8.82;4.20;;;24.10;95.90;;;;;;7398462;19;20007;-73
2023/10/17 10:38:44;;;;;;;6.72;3.70;;;24.00;96.80;;;;;;7383407;19;20734;-74
2023/10/17 10:41:15;;;;;;;11.80;4.40;;;23.80;97.60;;;;;;7396401;19;19919;-73
2023/10/17 10:43:44;;;;;;;9.57;4.35;;;24.00;97.60;;;;;;7398794;19;20264;-73
2023/10/17 10:46:17;;;;;;;7.50;3.90;;;24.10;96.70;;;;;;7391165;19;19983;-73
2023/10/17 10:48:53;;;;;;;10.82;4.35;;;24.60;95.80;;;;;;7400365;19;19914;-73
2023/10/17 10:51:21;;;;;;;10.23;4.78;;;24.30;95.90;;;;;;7393151;19;19933;-73
2023/10/17 10:53:54;;;;;;;9.32;4.40;;;24.30;95.40;;;;;;7395367;19;19919;-74
2023/10/17 10:56:26;;;;;;;8.40;4.43;;;24.20;96.50;;;;;;7390154;19;19919;-74
2023/10/17 10:58:57;;;;;;;18.25;5.68;;;24.90;95.10;;;;;;7390313;19;19915;-73
2023/10/17 11:01:27;;;;;;;11.77;5.15;;;25.00;94.60;;;;;;7385266;19;19939;-73
2023/10/17 11:03:54;;;;;;;9.23;4.40;;;25.50;93.00;;;;;;7397658;19;19930;-72
2023/10/17 11:06:25;;;;;;;9.88;4.47;;;26.40;90.40;;;;;;7391590;19;20346;-75
2023/10/17 11:08:53;;;;;;;10.63;4.00;;;25.50;90.60;;;;;;7393517;19;19961;-75
2023/10/17 11:11:19;;;;;;;7.95;4.15;;;26.20;90.90;;;;;;7396357;19;20374;-74
2023/10/17 11:13:50;;;;;;;10.70;3.85;;;26.50;88.30;;;;;;7397876;19;19922;-73
2023/10/17 11:16:17;;;;;;;10.30;4.55;;;26.20;87.90;;;;;;7392799;19;19949;-76
2023/10/17 11:18:43;;;;;;;11.70;4.85;;;25.90;87.80;;;;;;7385475;19;19923;-74
2023/10/17 11:21:10;;;;;;;8.60;4.50;;;25.80;90.80;;;;;;7394450;19;20020;-73
2023/10/17 11:23:41;;;;;;;8.50;4.13;;;26.20;89.20;;;;;;7391482;19;20307;-74
2023/10/17 11:26:12;;;;;;;9.80;4.57;;;27.10;84.60;;;;;;7390247;19;19944;-73
2023/10/17 11:28:46;;;;;;;10.18;3.90;;;26.70;84.90;;;;;;7397662;19;19936;-74
2023/10/17 11:31:22;;;;;;;7.25;3.67;;;26.30;85.80;;;;;;7390023;19;19922;-74
2023/10/17 11:34:12;;;;;;;9.27;3.75;;;25.50;91.10;;;;;;7399413;19;19959;-73
2023/10/17 11:36:46;;;;;;;14.77;4.50;;;25.10;92.30;;;;;;7396576;19;19928;-73
2023/10/17 11:39:15;;;;;;;8.15;3.67;;;25.50;91.80;;;;;;7370189;19;19993;-73
2023/10/17 11:41:53;;;;;;;9.43;3.97;;;25.70;91.30;;;;;;7397075;19;21999;-74
2023/10/17 11:44:23;;;;;;;9.38;3.78;;;25.70;91.90;;;;;;7396376;19;19919;-75
2023/10/17 11:47:26;;;;;;;9.63;4.20;;;25.50;92.40;;;;;;7398775;19;19931;-73
2023/10/17 11:49:43;;;;;;;12.88;3.58;;;25.70;92.50;;;;;;7396643;19;19915;-74
2023/10/17 11:52:10;;;;;;;9.15;3.97;;;26.70;89.20;;;;;;7394659;19;20341;-74
2023/10/17 11:54:57;;;;;;;7.40;3.63;;;25.90;90.80;;;;;;7393899;19;20271;-73
2023/10/17 11:57:25;;;;;;;7.78;4.03;;;26.20;89.40;;;;;;7388404;19;19951;-74
2023/10/17 12:00:06;;;;;;;7.68;3.70;;;26.50;89.40;;;;;;7393715;19;19918;-74
2023/10/17 12:02:33;;;;;;;11.07;3.75;;;27.40;85.00;;;;;;7400681;19;20547;-73
2023/10/17 12:05:03;;;;;;;10.48;4.30;;;27.50;82.20;;;;;;7402770;19;19914;-75
2023/10/17 12:07:29;;;;;;;7.00;3.25;;;27.70;79.30;;;;;;7403520;19;19914;-73
2023/10/17 12:10:04;;;;;;;7.82;3.63;;;28.40;75.60;;;;;;7401217;19;19914;-74
2023/10/17 12:12:30;;;;;;;7.00;3.60;;;27.80;73.90;;;;;;7397865;19;20552;-74
2023/10/17 12:14:57;;;;;;;;;;;27.30;75.70;;;;;;7401141;19;19919;-74
2023/10/17 12:17:23;;;;;;;8.55;3.60;;;26.80;77.80;;;;;;7404237;19;20028;-74
2023/10/17 12:19:51;;;;;;;8.73;4.00;;;26.50;80.90;;;;;;7404924;19;20342;-75
2023/10/17 12:22:17;;;;;;;8.57;3.70;;;26.50;82.20;;;;;;7400898;19;19935;-74
2023/10/17 12:24:45;;;;;;;7.82;4.07;;;26.80;80.60;;;;;;7400786;19;19943;-76
2023/10/17 12:27:12;;;;;;;10.23;4.38;;;26.90;79.00;;;;;;7400461;19;19910;-73
2023/10/17 12:29:41;;;;;;;6.35;3.67;;;27.40;79.70;;;;;;7399410;19;20261;-73
2023/10/17 12:32:10;;;;;;;8.18;3.88;;;27.60;74.30;;;;;;7402636;19;19914;-74
2023/10/17 12:34:39;;;;;;;10.32;4.55;;;27.70;74.50;;;;;;7402843;19;19938;-75
2023/10/17 12:37:06;;;;;;;10.20;4.25;;;27.50;75.00;;;;;;7400234;19;19934;-73
2023/10/17 12:39:32;;;;;;;9.15;4.63;;;27.00;75.70;;;;;;7398148;19;19957;-73
2023/10/17 12:41:59;;;;;;;8.52;4.20;;;26.60;79.80;;;;;;7402212;19;20002;-74
2023/10/17 12:44:25;;;;;;;8.75;4.05;;;25.80;84.40;;;;;;7402413;19;19922;-75
2023/10/17 12:46:51;;;;;;;9.32;4.80;;;26.20;85.70;;;;;;7403813;19;19930;-75
2023/10/17 12:49:19;;;;;;;12.32;5.22;;;25.90;87.80;;;;;;7399299;19;19918;-74
2023/10/17 12:51:47;;;;;;;12.25;4.95;;;25.90;87.70;;;;;;7381331;19;19922;-75
2023/10/17 12:54:13;;;;;;;11.13;4.22;;;25.70;90.20;;;;;;7401040;19;19918;-75
2023/10/17 12:56:39;;;;;;;9.50;4.53;;;25.70;90.20;;;;;;7403310;19;19942;-75
2023/10/17 12:59:05;;;;;;;10.13;4.40;;;25.70;90.50;;;;;;7381294;19;19942;-74
2023/10/17 13:01:31;;;;;;;10.38;4.85;;;25.00;91.50;;;;;;7399666;19;19935;-74
2023/10/17 13:03:57;;;;;;;9.07;4.88;;;24.90;92.90;;;;;;7400500;19;19935;-74
2023/10/17 13:06:27;;;;;;;8.85;4.90;;;25.10;93.00;;;;;;7401939;19;19935;-74
2023/10/17 13:08:56;;;;;;;10.75;4.78;;;25.20;92.50;;;;;;7400538;19;19985;-74
2023/10/17 13:11:26;;;;;;;8.77;4.57;;;25.30;93.00;;;;;;7401329;19;19930;-74
2023/10/17 13:13:53;;;;;;;9.02;4.85;;;25.20;92.30;;;;;;7400821;19;19919;-74
2023/10/17 13:16:26;;;;;;;10.73;4.82;;;25.30;91.10;;;;;;7396591;19;19928;-76
2023/10/17 13:19:05;;;;;;;9.88;4.65;;;26.30;89.40;;;;;;7398331;19;19978;-74
2023/10/17 13:21:36;;;;;;;9.73;5.20;;;26.50;87.50;;;;;;7396307;19;19922;-76
2023/10/17 13:24:05;;;;;;;8.63;4.45;;;25.80;88.30;;;;;;7381656;19;20372;-75
2023/10/17 13:26:32;;;;;;;12.27;3.97;;;25.90;87.60;;;;;;7394854;19;19922;-73
2023/10/17 13:28:58;;;;;;;8.15;4.13;;;25.90;88.10;;;;;;7399813;19;19911;-74
2023/10/17 13:31:24;;;;;;;7.20;3.88;;;26.10;85.20;;;;;;7397396;19;19925;-76
2023/10/17 13:33:50;;;;;;;8.65;4.72;;;25.20;90.10;;;;;;7400389;19;19990;-74
2023/10/17 13:36:16;;;;;;;9.95;4.53;;;26.00;90.00;;;;;;7391554;19;19990;-74
2023/10/17 13:38:43;;;;;;;;;;;26.20;85.30;;;;;;7389843;19;19943;-74
2023/10/17 13:41:10;;;;;;;11.10;5.18;;;25.80;89.50;;;;;;7387944;19;19915;-76
2023/10/17 13:43:39;;;;;;;8.30;4.60;;;26.00;88.70;;;;;;7391618;19;20032;-72
2023/10/17 13:46:13;;;;;;;15.23;5.55;;;26.40;85.80;;;;;;7386455;19;20312;-76
2023/10/17 13:48:49;;;;;;;11.88;4.50;;;27.20;82.50;;;;;;7397014;19;19918;-74
2023/10/17 13:51:17;;;;;;;9.30;4.50;;;26.50;80.40;;;;;;7391045;19;19978;-77
2023/10/17 13:53:44;;;;;;;9.52;4.90;;;26.50;83.30;;;;;;7396734;19;19910;-74
2023/10/17 13:56:21;;;;;;;9.85;5.07;;;26.60;83.00;;;;;;7390489;19;19918;-76
2023/10/17 13:58:49;;;;;;;11.25;5.05;;;27.40;78.80;;;;;;7395844;19;19953;-74
2023/10/17 14:01:33;;;;;;;7.93;4.97;;;27.20;79.80;;;;;;7379346;19;19999;-73
2023/10/17 14:04:02;;;;;;;12.85;4.90;;;26.30;83.00;;;;;;7387028;19;19978;-74
2023/10/17 14:06:39;;;;;;;7.82;4.18;;;26.40;86.60;;;;;;7391245;19;19951;-74
2023/10/17 14:09:15;;;;;;;9.02;4.05;;;27.10;81.50;;;;;;7358179;19;20026;-74
2023/10/17 14:11:48;;;;;;;12.23;5.03;;;26.10;81.50;;;;;;7383068;19;20335;-75
2023/10/17 14:14:15;;;;;;;9.40;4.07;;;25.40;91.40;;;;;;7391604;19;19918;-73
2023/10/17 14:16:41;;;;;;;10.52;4.75;;;24.90;93.60;;;;;;7386505;19;19907;-74
2023/10/17 14:19:15;;;;;;;9.30;3.78;;;24.90;93.80;;;;;;7398496;19;19926;-74
2023/10/17 14:27:13;;;;;;;11.73;4.45;;;24.20;97.00;;;;;;7400690;19;19939;-73
2023/10/17 14:29:45;;;;;;;12.95;5.28;;;24.30;97.30;;;;;;7399864;19;19915;-75
2023/10/17 14:32:10;;;;;;;9.82;4.38;;;24.30;97.60;;;;;;7398266;19;19990;-76
2023/10/17 14:34:37;;;;;;;11.18;4.45;;;24.40;97.40;;;;;;7399180;19;20263;-73
2023/10/17 14:37:05;;;;;;;9.57;4.47;;;24.50;97.10;;;;;;7398747;19;20279;-75
2023/10/17 14:39:32;;;;;;;12.45;4.43;;;24.50;97.20;;;;;;7401114;19;19994;-76
2023/10/17 14:41:59;;;;;;;13.82;5.38;;;24.40;98.00;;;;;;7398567;19;20006;-73
2023/10/17 14:44:27;;;;;;;8.35;4.18;;;24.20;99.00;;;;;;7400201;19;20002;-74
2023/10/17 14:46:52;;;;;;;9.48;4.82;;;24.20;99.30;;;;;;7398076;19;19915;-74
2023/10/17 14:49:19;;;;;;;10.32;4.28;;;24.00;99.90;;;;;;7383163;19;19926;-74
2023/10/17 14:51:45;;;;;;;10.20;4.82;;;23.90;99.90;;;;;;7395299;19;19915;-74
2023/10/17 14:54:13;;;;;;;11.10;4.50;;;23.90;99.90;;;;;;7392900;19;19933;-75
2023/10/17 14:56:39;;;;;;;9.63;4.47;;;24.00;99.90;;;;;;7395714;19;19907;-73
2023/10/17 14:59:05;;;;;;;10.60;5.15;;;24.10;99.90;;;;;;7390743;19;19918;-73
2023/10/17 15:01:33;;;;;;;9.70;4.60;;;23.90;99.90;;;;;;7390454;19;20346;-74
2023/10/17 15:04:00;;;;;;;8.32;4.15;;;23.90;99.90;;;;;;7392972;19;20341;-74
2023/10/17 15:06:27;;;;;;;13.93;4.93;;;23.50;99.90;;;;;;7395919;19;19918;-73